Terminal Aerodrome Forecast
Issued by NWS

Home | Current Version | Previous Version | Graphics & Text | Print | Product List | Glossary On
Versions: 1 2 3 4 5 6 7 8 9 10 11 12 13 14 15 16 17 18 19 20 21 22
834
FTUS43 KMPX 300435 AAB
TAFRNH
TAF AMD
KRNH 300435Z 3005/3024 29008KT P6SM -SHRA SCT025 OVC060
      TEMPO 3005/3007 2SM TSRA OVC025CB
     FM300700 VRB03KT 5SM BR BKN200
     FM301400 35006KT P6SM FEW250=

USA.gov is the U.S. government's official web portal to all federal, state and local government web resources and services.